Terminal Aerodrome Forecast
Issued by NWS Upton, NY

Home | Current Version | Previous Version | Text Only | Print | Product List | Glossary On
Versions: 1 2 3 4 5 6 7 8 9 10 11 12 13 14 15 16 17 18 19 20 21 22 23 24 25
000
FTUS41 KOKX 241100 RRA
TAFBDR
TAF
KBDR 241146Z 2412/2512 18022G32KT 5SM -SHRA BR OVC015 WS020/19050KT
     FM241600 19020G30KT 6SM BR OVC015 WS020/21045KT
     FM241800 20015G28KT P6SM BKN015
     FM250000 22012G21KT 5SM BR SCT010 OVC020
     FM250600 23009KT P6SM SCT020 BKN250
     FM250900 25005KT P6SM FEW020 BKN250=

USA.gov is the U.S. government's official web portal to all federal, state and local government web resources and services.